sensor_id;sensor_type;location;lat;lon;timestamp;pressure;altitude;pressure_sealevel;temperature;humidity
55468;BME280;41332;42.702;23.200;2022-10-15T00:02:05;94237.09;;;10.67;70.56
55468;BME280;41332;42.702;23.200;2022-10-15T00:04:31;94239.56;;;10.64;70.50
55468;BME280;41332;42.702;23.200;2022-10-15T00:06:57;94239.91;;;10.62;70.50
55468;BME280;41332;42.702;23.200;2022-10-15T00:09:22;94238.66;;;10.60;70.98
55468;BME280;41332;42.702;23.200;2022-10-15T00:11:48;94241.63;;;10.58;70.82
55468;BME280;41332;42.702;23.200;2022-10-15T00:14:13;94234.81;;;10.57;70.79
55468;BME280;41332;42.702;23.200;2022-10-15T00:16:38;94231.09;;;10.58;70.67
55468;BME280;41332;42.702;23.200;2022-10-15T00:19:04;94229.25;;;10.59;70.61
55468;BME280;41332;42.702;23.200;2022-10-15T00:21:29;94227.13;;;10.52;70.82
55468;BME280;41332;42.702;23.200;2022-10-15T00:23:55;94224.47;;;10.52;71.01
55468;BME280;41332;42.702;23.200;2022-10-15T00:26:23;94226.03;;;10.53;70.96
55468;BME280;41332;42.702;23.200;2022-10-15T00:28:51;94223.41;;;10.53;70.83
55468;BME280;41332;42.702;23.200;2022-10-15T00:31:17;94218.47;;;10.51;70.83
55468;BME280;41332;42.702;23.200;2022-10-15T00:33:47;94222.97;;;10.51;70.81
55468;BME280;41332;42.702;23.200;2022-10-15T00:36:15;94214.81;;;10.44;70.96
55468;BME280;41332;42.702;23.200;2022-10-15T00:38:40;94222.34;;;10.45;71.19
55468;BME280;41332;42.702;23.200;2022-10-15T00:41:08;94218.06;;;10.41;71.20
55468;BME280;41332;42.702;23.200;2022-10-15T00:43:51;94209.88;;;10.33;71.11
55468;BME280;41332;42.702;23.200;2022-10-15T00:46:24;94212.19;;;10.26;71.79
55468;BME280;41332;42.702;23.200;2022-10-15T00:48:57;94212.50;;;10.33;71.43
55468;BME280;41332;42.702;23.200;2022-10-15T00:51:28;94206.34;;;10.29;71.33
55468;BME280;41332;42.702;23.200;2022-10-15T00:53:55;94207.88;;;10.30;71.35
55468;BME280;41332;42.702;23.200;2022-10-15T00:56:23;94210.94;;;10.32;70.99
55468;BME280;41332;42.702;23.200;2022-10-15T00:58:51;94211.25;;;10.31;71.20
55468;BME280;41332;42.702;23.200;2022-10-15T01:01:18;94207.09;;;10.30;70.93
55468;BME280;41332;42.702;23.200;2022-10-15T01:03:44;94214.66;;;10.31;71.22
55468;BME280;41332;42.702;23.200;2022-10-15T01:06:09;94207.25;;;10.33;71.16
55468;BME280;41332;42.702;23.200;2022-10-15T01:08:35;94203.38;;;10.31;71.17
55468;BME280;41332;42.702;23.200;2022-10-15T01:22:15;94194.34;;;10.11;71.72
55468;BME280;41332;42.702;23.200;2022-10-15T01:25:00;94200.53;;;10.15;71.95
55468;BME280;41332;42.702;23.200;2022-10-15T01:27:44;94206.69;;;10.19;71.83
55468;BME280;41332;42.702;23.200;2022-10-15T01:32:50;94203.09;;;10.23;71.50
55468;BME280;41332;42.702;23.200;2022-10-15T01:38:02;94201.56;;;10.22;71.61
55468;BME280;41332;42.702;23.200;2022-10-15T01:43:50;94201.56;;;10.22;72.06
55468;BME280;41332;42.702;23.200;2022-10-15T01:46:22;94202.19;;;10.19;72.20
55468;BME280;41332;42.702;23.200;2022-10-15T01:48:50;94184.91;;;10.18;72.00
55468;BME280;41332;42.702;23.200;2022-10-15T01:51:19;94197.09;;;10.23;71.93
55468;BME280;41332;42.702;23.200;2022-10-15T01:53:46;94203.56;;;10.26;71.98
55468;BME280;41332;42.702;23.200;2022-10-15T01:56:17;94195.69;;;10.26;72.10
55468;BME280;41332;42.702;23.200;2022-10-15T01:58:46;94196.00;;;10.24;72.18
55468;BME280;41332;42.702;23.200;2022-10-15T02:01:14;94202.16;;;10.28;71.90
55468;BME280;41332;42.702;23.200;2022-10-15T02:03:47;94200.63;;;10.27;72.33
55468;BME280;41332;42.702;23.200;2022-10-15T02:06:24;94205.44;;;10.25;72.60
55468;BME280;41332;42.702;23.200;2022-10-15T02:08:59;94201.69;;;10.26;72.59
55468;BME280;41332;42.702;23.200;2022-10-15T02:11:26;94203.56;;;10.26;72.60
55468;BME280;41332;42.702;23.200;2022-10-15T02:14:00;94209.13;;;10.24;72.68
55468;BME280;41332;42.702;23.200;2022-10-15T02:16:35;94204.03;;;10.28;72.74
55468;BME280;41332;42.702;23.200;2022-10-15T02:21:39;94198.78;;;10.28;72.50
55468;BME280;41332;42.702;23.200;2022-10-15T02:26:35;94205.88;;;10.18;72.85
55468;BME280;41332;42.702;23.200;2022-10-15T02:29:04;94213.59;;;10.23;72.54
55468;BME280;41332;42.702;23.200;2022-10-15T02:31:32;94206.34;;;10.20;72.76
55468;BME280;41332;42.702;23.200;2022-10-15T02:34:03;94206.34;;;10.20;72.65
55468;BME280;41332;42.702;23.200;2022-10-15T02:36:30;94210.34;;;10.27;72.41
55468;BME280;41332;42.702;23.200;2022-10-15T02:39:00;94208.34;;;10.23;72.84
55468;BME280;41332;42.702;23.200;2022-10-15T02:41:29;94206.19;;;10.26;73.08
55468;BME280;41332;42.702;23.200;2022-10-15T02:43:54;94204.31;;;10.26;73.00
55468;BME280;41332;42.702;23.200;2022-10-15T02:46:20;94204.78;;;10.28;73.06
55468;BME280;41332;42.702;23.200;2022-10-15T02:48:45;94205.88;;;10.27;73.09
55468;BME280;41332;42.702;23.200;2022-10-15T02:51:11;94209.41;;;10.31;73.32
55468;BME280;41332;42.702;23.200;2022-10-15T02:53:36;94199.22;;;10.30;73.42
55468;BME280;41332;42.702;23.200;2022-10-15T02:56:02;94200.63;;;10.36;73.53
55468;BME280;41332;42.702;23.200;2022-10-15T02:58:28;94197.22;;;10.35;73.18
55468;BME280;41332;42.702;23.200;2022-10-15T03:00:55;94199.38;;;10.33;73.58
55468;BME280;41332;42.702;23.200;2022-10-15T03:03:20;94201.38;;;10.36;73.83
55468;BME280;41332;42.702;23.200;2022-10-15T03:05:46;94198.28;;;10.34;73.97
55468;BME280;41332;42.702;23.200;2022-10-15T03:08:11;94190.41;;;10.34;73.99
55468;BME280;41332;42.702;23.200;2022-10-15T03:10:36;94198.13;;;10.39;73.75
55468;BME280;41332;42.702;23.200;2022-10-15T03:13:03;94198.13;;;10.39;74.18
55468;BME280;41332;42.702;23.200;2022-10-15T03:15:29;94193.97;;;10.38;74.04
55468;BME280;41332;42.702;23.200;2022-10-15T03:17:54;94202.50;;;10.35;74.31
55468;BME280;41332;42.702;23.200;2022-10-15T03:20:19;94190.88;;;10.36;74.33
55468;BME280;41332;42.702;23.200;2022-10-15T03:22:45;94200.13;;;10.34;74.49
55468;BME280;41332;42.702;23.200;2022-10-15T03:25:10;94196.59;;;10.30;74.42
55468;BME280;41332;42.702;23.200;2022-10-15T03:27:36;94201.53;;;10.31;74.43
55468;BME280;41332;42.702;23.200;2022-10-15T03:30:02;94199.38;;;10.33;74.28
55468;BME280;41332;42.702;23.200;2022-10-15T03:32:27;94195.38;;;10.27;74.71
55468;BME280;41332;42.702;23.200;2022-10-15T03:34:52;94203.25;;;10.27;75.01
55468;BME280;41332;42.702;23.200;2022-10-15T03:37:18;94198.13;;;10.31;74.89
55468;BME280;41332;42.702;23.200;2022-10-15T03:39:43;94201.53;;;10.31;74.98
55468;BME280;41332;42.702;23.200;2022-10-15T03:42:09;94203.72;;;10.38;74.50
55468;BME280;41332;42.702;23.200;2022-10-15T03:44:34;94209.53;;;10.44;74.47
55468;BME280;41332;42.702;23.200;2022-10-15T03:47:02;94206.28;;;10.47;74.72
55468;BME280;41332;42.702;23.200;2022-10-15T03:49:28;94212.31;;;10.47;74.93
55468;BME280;41332;42.702;23.200;2022-10-15T03:51:53;94217.91;;;10.46;75.08
55468;BME280;41332;42.702;23.200;2022-10-15T03:54:18;94215.25;;;10.46;75.43
55468;BME280;41332;42.702;23.200;2022-10-15T03:56:44;94218.00;;;10.49;75.47
55468;BME280;41332;42.702;23.200;2022-10-15T03:59:09;94212.16;;;10.52;75.56
55468;BME280;41332;42.702;23.200;2022-10-15T04:01:34;94216.25;;;10.62;76.05
55468;BME280;41332;42.702;23.200;2022-10-15T04:04:00;94211.97;;;10.58;75.87
55468;BME280;41332;42.702;23.200;2022-10-15T04:06:25;94218.13;;;10.62;76.11
55468;BME280;41332;42.702;23.200;2022-10-15T04:08:51;94218.44;;;10.60;76.24
55468;BME280;41332;42.702;23.200;2022-10-15T04:11:16;94211.97;;;10.58;76.17
55468;BME280;41332;42.702;23.200;2022-10-15T04:13:41;94215.03;;;10.60;76.61
55468;BME280;41332;42.702;23.200;2022-10-15T04:16:07;94214.91;;;10.56;76.01
55468;BME280;41332;42.702;23.200;2022-10-15T04:18:32;94211.81;;;10.54;76.69
55468;BME280;41332;42.702;23.200;2022-10-15T04:20:58;94215.66;;;10.57;76.67
55468;BME280;41332;42.702;23.200;2022-10-15T04:23:24;94212.72;;;10.58;76.78
55468;BME280;41332;42.702;23.200;2022-10-15T04:25:49;94215.84;;;10.51;77.32
55468;BME280;41332;42.702;23.200;2022-10-15T04:28:15;94214.63;;;10.49;77.82
55468;BME280;41332;42.702;23.200;2022-10-15T04:30:40;94217.56;;;10.47;78.32
55468;BME280;41332;42.702;23.200;2022-10-15T04:33:05;94212.81;;;10.41;78.72
55468;BME280;41332;42.702;23.200;2022-10-15T04:35:31;94208.00;;;10.34;78.77
55468;BME280;41332;42.702;23.200;2022-10-15T04:38:00;94219.00;;;10.36;78.90
55468;BME280;41332;42.702;23.200;2022-10-15T04:40:26;94218.81;;;10.32;79.08
55468;BME280;41332;42.702;23.200;2022-10-15T04:42:51;94222.69;;;10.35;78.89
55468;BME280;41332;42.702;23.200;2022-10-15T04:45:16;94224.53;;;10.34;78.70
55468;BME280;41332;42.702;23.200;2022-10-15T04:47:42;94220.69;;;10.32;78.66
55468;BME280;41332;42.702;23.200;2022-10-15T04:50:08;94222.25;;;10.33;78.83
55468;BME280;41332;42.702;23.200;2022-10-15T04:52:37;94226.88;;;10.27;79.03
55468;BME280;41332;42.702;23.200;2022-10-15T04:55:02;94240.75;;;10.36;78.64
55468;BME280;41332;42.702;23.200;2022-10-15T04:57:29;94231.38;;;10.35;78.71
55468;BME280;41332;42.702;23.200;2022-10-15T04:59:55;94235.22;;;10.38;78.77
55468;BME280;41332;42.702;23.200;2022-10-15T05:02:20;94231.50;;;10.39;78.70
55468;BME280;41332;42.702;23.200;2022-10-15T05:04:46;94235.50;;;10.36;78.68
55468;BME280;41332;42.702;23.200;2022-10-15T05:07:11;94233.50;;;10.42;79.08
55468;BME280;41332;42.702;23.200;2022-10-15T05:09:37;94237.69;;;10.43;78.78
55468;BME280;41332;42.702;23.200;2022-10-15T05:12:05;94234.44;;;10.37;78.96
55468;BME280;41332;42.702;23.200;2022-10-15T05:14:30;94239.19;;;10.44;78.92
55468;BME280;41332;42.702;23.200;2022-10-15T05:16:55;94239.63;;;10.55;78.50
55468;BME280;41332;42.702;23.200;2022-10-15T05:19:21;94248.75;;;10.58;78.61
55468;BME280;41332;42.702;23.200;2022-10-15T05:21:46;94244.56;;;10.57;78.50
55468;BME280;41332;42.702;23.200;2022-10-15T05:24:12;94251.53;;;10.52;78.59
55468;BME280;41332;42.702;23.200;2022-10-15T05:26:37;94255.41;;;10.46;78.64
55468;BME280;41332;42.702;23.200;2022-10-15T05:29:03;94262.03;;;10.52;78.56
55468;BME280;41332;42.702;23.200;2022-10-15T05:31:32;94263.09;;;10.60;78.45
55468;BME280;41332;42.702;23.200;2022-10-15T05:33:57;94264.00;;;10.64;78.30
55468;BME280;41332;42.702;23.200;2022-10-15T05:36:27;94261.38;;;10.64;78.22
55468;BME280;41332;42.702;23.200;2022-10-15T05:38:57;94265.84;;;10.64;78.47
55468;BME280;41332;42.702;23.200;2022-10-15T05:41:24;94262.94;;;10.57;77.98
55468;BME280;41332;42.702;23.200;2022-10-15T05:43:51;94270.66;;;10.62;78.00
55468;BME280;41332;42.702;23.200;2022-10-15T05:46:17;94273.09;;;10.67;77.69
55468;BME280;41332;42.702;23.200;2022-10-15T05:48:50;94282.81;;;10.66;77.63
55468;BME280;41332;42.702;23.200;2022-10-15T05:51:16;94274.50;;;10.64;77.40
55468;BME280;41332;42.702;23.200;2022-10-15T05:53:41;94280.66;;;10.68;77.35
55468;BME280;41332;42.702;23.200;2022-10-15T05:56:08;94279.72;;;10.73;77.32
55468;BME280;41332;42.702;23.200;2022-10-15T05:58:34;94279.09;;;10.76;77.05
55468;BME280;41332;42.702;23.200;2022-10-15T06:01:02;94273.97;;;10.80;77.45
55468;BME280;41332;42.702;23.200;2022-10-15T06:03:28;94273.19;;;10.79;77.53
55468;BME280;41332;42.702;23.200;2022-10-15T06:05:54;94273.63;;;10.90;76.89
55468;BME280;41332;42.702;23.200;2022-10-15T06:08:20;94270.84;;;10.86;76.74
55468;BME280;41332;42.702;23.200;2022-10-15T06:10:46;94280.88;;;10.93;76.63
55468;BME280;41332;42.702;23.200;2022-10-15T06:13:12;94289.72;;;10.88;76.08
55468;BME280;41332;42.702;23.200;2022-10-15T06:17:02;94292.34;;;10.88;75.64
55468;BME280;41332;42.702;23.200;2022-10-15T06:19:28;94291.53;;;10.97;75.33
55468;BME280;41332;42.702;23.200;2022-10-15T06:21:53;94296.63;;;10.93;75.26
55468;BME280;41332;42.702;23.200;2022-10-15T06:24:18;94292.59;;;10.96;74.95
55468;BME280;41332;42.702;23.200;2022-10-15T06:26:44;94295.25;;;11.68;72.78
55468;BME280;41332;42.702;23.200;2022-10-15T06:29:09;94290.00;;;13.43;66.35
55468;BME280;41332;42.702;23.200;2022-10-15T06:31:35;94278.63;;;14.24;63.22
55468;BME280;41332;42.702;23.200;2022-10-15T06:34:00;94294.53;;;13.83;63.45
55468;BME280;41332;42.702;23.200;2022-10-15T06:36:26;94291.19;;;14.43;61.70
55468;BME280;41332;42.702;23.200;2022-10-15T06:38:51;94301.59;;;15.67;58.49
55468;BME280;41332;42.702;23.200;2022-10-15T06:41:16;94303.38;;;16.84;53.79
55468;BME280;41332;42.702;23.200;2022-10-15T06:43:42;94302.91;;;17.82;51.58
55468;BME280;41332;42.702;23.200;2022-10-15T06:46:09;94305.66;;;18.61;48.42
55468;BME280;41332;42.702;23.200;2022-10-15T06:48:34;94313.88;;;19.35;46.97
55468;BME280;41332;42.702;23.200;2022-10-15T06:51:00;94305.78;;;19.80;44.99
55468;BME280;41332;42.702;23.200;2022-10-15T06:53:27;94311.31;;;20.26;43.48
55468;BME280;41332;42.702;23.200;2022-10-15T06:55:57;94309.56;;;20.78;42.28
55468;BME280;41332;42.702;23.200;2022-10-15T06:58:22;94307.22;;;21.52;41.75
55468;BME280;41332;42.702;23.200;2022-10-15T07:00:48;94310.56;;;22.03;39.92
55468;BME280;41332;42.702;23.200;2022-10-15T07:03:13;94309.31;;;22.22;39.02
55468;BME280;41332;42.702;23.200;2022-10-15T07:05:39;94313.47;;;22.34;39.23
55468;BME280;41332;42.702;23.200;2022-10-15T07:08:04;94321.34;;;21.63;40.55
55468;BME280;41332;42.702;23.200;2022-10-15T07:10:30;94331.19;;;20.44;42.74
55468;BME280;41332;42.702;23.200;2022-10-15T07:12:58;94332.34;;;20.57;42.87
55468;BME280;41332;42.702;23.200;2022-10-15T07:15:24;94319.44;;;21.46;41.49
55468;BME280;41332;42.702;23.200;2022-10-15T07:17:52;94319.94;;;19.87;44.08
55468;BME280;41332;42.702;23.200;2022-10-15T07:20:21;94325.69;;;19.37;45.32
55468;BME280;41332;42.702;23.200;2022-10-15T07:22:46;94326.09;;;18.16;48.16
55468;BME280;41332;42.702;23.200;2022-10-15T07:25:13;94321.97;;;18.22;48.59
55468;BME280;41332;42.702;23.200;2022-10-15T07:27:38;94331.31;;;17.24;51.01
55468;BME280;41332;42.702;23.200;2022-10-15T07:30:05;94316.63;;;17.88;49.83
55468;BME280;41332;42.702;23.200;2022-10-15T07:32:31;94318.03;;;18.42;48.67
55468;BME280;41332;42.702;23.200;2022-10-15T07:34:57;94322.19;;;17.49;50.31
55468;BME280;41332;42.702;23.200;2022-10-15T07:37:22;94318.25;;;17.39;50.03
55468;BME280;41332;42.702;23.200;2022-10-15T07:39:47;94314.16;;;17.18;50.54
55468;BME280;41332;42.702;23.200;2022-10-15T07:42:13;94316.28;;;17.59;48.69
55468;BME280;41332;42.702;23.200;2022-10-15T07:44:38;94318.00;;;18.05;47.91
55468;BME280;41332;42.702;23.200;2022-10-15T07:47:03;94319.78;;;19.66;44.03
55468;BME280;41332;42.702;23.200;2022-10-15T07:49:30;94316.28;;;20.32;42.87
55468;BME280;41332;42.702;23.200;2022-10-15T07:51:55;94319.84;;;21.12;40.48
55468;BME280;41332;42.702;23.200;2022-10-15T07:54:21;94318.53;;;20.22;41.48
55468;BME280;41332;42.702;23.200;2022-10-15T07:56:46;94327.06;;;21.51;39.34
55468;BME280;41332;42.702;23.200;2022-10-15T07:59:12;94321.25;;;22.03;37.73
55468;BME280;41332;42.702;23.200;2022-10-15T08:01:37;94327.34;;;22.07;37.78
55468;BME280;41332;42.702;23.200;2022-10-15T08:04:02;94321.47;;;23.01;36.17
55468;BME280;41332;42.702;23.200;2022-10-15T08:06:30;94328.84;;;23.38;34.39
55468;BME280;41332;42.702;23.200;2022-10-15T08:08:56;94318.84;;;22.34;35.59
55468;BME280;41332;42.702;23.200;2022-10-15T08:11:21;94323.19;;;22.77;35.34
55468;BME280;41332;42.702;23.200;2022-10-15T08:13:46;94318.09;;;22.93;35.21
55468;BME280;41332;42.702;23.200;2022-10-15T08:16:14;94322.28;;;23.50;34.41
55468;BME280;41332;42.702;23.200;2022-10-15T08:18:40;94326.53;;;23.44;33.96
55468;BME280;41332;42.702;23.200;2022-10-15T08:21:06;94321.06;;;23.06;34.72
55468;BME280;41332;42.702;23.200;2022-10-15T08:23:32;94315.13;;;21.99;36.57
55468;BME280;41332;42.702;23.200;2022-10-15T08:25:58;94312.63;;;21.12;37.90
55468;BME280;41332;42.702;23.200;2022-10-15T08:28:25;94321.00;;;19.79;40.24
55468;BME280;41332;42.702;23.200;2022-10-15T08:30:51;94316.03;;;19.15;41.83
55468;BME280;41332;42.702;23.200;2022-10-15T08:33:16;94309.75;;;18.51;43.90
55468;BME280;41332;42.702;23.200;2022-10-15T08:35:42;94314.94;;;18.03;44.94
55468;BME280;41332;42.702;23.200;2022-10-15T08:38:10;94309.13;;;17.63;45.90
55468;BME280;41332;42.702;23.200;2022-10-15T08:40:35;94296.25;;;17.38;46.24
55468;BME280;41332;42.702;23.200;2022-10-15T08:43:01;94303.34;;;17.04;46.55
55468;BME280;41332;42.702;23.200;2022-10-15T08:47:57;94302.44;;;16.73;49.57
55468;BME280;41332;42.702;23.200;2022-10-15T08:50:41;94306.84;;;16.65;50.43
55468;BME280;41332;42.702;23.200;2022-10-15T08:53:16;94305.91;;;16.77;49.61
55468;BME280;41332;42.702;23.200;2022-10-15T08:55:45;94316.44;;;16.73;50.62
55468;BME280;41332;42.702;23.200;2022-10-15T09:07:06;94313.16;;;16.57;50.13
55468;BME280;41332;42.702;23.200;2022-10-15T09:09:47;94317.00;;;16.59;49.65
55468;BME280;41332;42.702;23.200;2022-10-15T09:15:17;94318.91;;;17.05;48.88
55468;BME280;41332;42.702;23.200;2022-10-15T09:17:46;94309.31;;;16.97;47.74
55468;BME280;41332;42.702;23.200;2022-10-15T09:20:33;94308.03;;;16.68;48.71
55468;BME280;41332;42.702;23.200;2022-10-15T09:23:00;94306.97;;;16.49;49.67
55468;BME280;41332;42.702;23.200;2022-10-15T09:25:32;94304.97;;;16.42;49.00
55468;BME280;41332;42.702;23.200;2022-10-15T09:28:06;94315.59;;;16.46;49.07
55468;BME280;41332;42.702;23.200;2022-10-15T09:30:52;94311.03;;;16.23;49.95
55468;BME280;41332;42.702;23.200;2022-10-15T09:36:15;94318.03;;;15.92;50.00
55468;BME280;41332;42.702;23.200;2022-10-15T09:43:56;94321.31;;;15.70;50.45
55468;BME280;41332;42.702;23.200;2022-10-15T09:46:23;94318.38;;;15.75;50.63
55468;BME280;41332;42.702;23.200;2022-10-15T09:49:06;94314.53;;;15.88;52.34
55468;BME280;41332;42.702;23.200;2022-10-15T09:51:39;94312.94;;;16.03;49.84
55468;BME280;41332;42.702;23.200;2022-10-15T09:54:43;94313.44;;;16.09;49.41
55468;BME280;41332;42.702;23.200;2022-10-15T09:56:59;94298.38;;;16.13;49.97
55468;BME280;41332;42.702;23.200;2022-10-15T09:59:25;94307.63;;;16.42;49.29
55468;BME280;41332;42.702;23.200;2022-10-15T10:04:28;94304.91;;;16.85;48.57
55468;BME280;41332;42.702;23.200;2022-10-15T10:06:59;94303.34;;;17.04;47.80
55468;BME280;41332;42.702;23.200;2022-10-15T10:09:47;94303.38;;;17.34;47.00
55468;BME280;41332;42.702;23.200;2022-10-15T10:12:19;94297.06;;;17.42;45.01
55468;BME280;41332;42.702;23.200;2022-10-15T10:15:01;94298.22;;;17.72;45.54
55468;BME280;41332;42.702;23.200;2022-10-15T10:17:28;94299.03;;;17.76;45.89
55468;BME280;41332;42.702;23.200;2022-10-15T10:20:14;94295.38;;;17.88;43.65
55468;BME280;41332;42.702;23.200;2022-10-15T10:22:49;94295.00;;;17.89;45.28
55468;BME280;41332;42.702;23.200;2022-10-15T10:27:52;94292.41;;;17.62;43.98
55468;BME280;41332;42.702;23.200;2022-10-15T10:30:18;94291.69;;;17.66;44.38
55468;BME280;41332;42.702;23.200;2022-10-15T10:33:17;94283.31;;;17.63;43.60
55468;BME280;41332;42.702;23.200;2022-10-15T10:35:45;94288.84;;;17.51;43.56
55468;BME280;41332;42.702;23.200;2022-10-15T10:38:21;94295.69;;;17.25;44.28
55468;BME280;41332;42.702;23.200;2022-10-15T10:41:12;94288.50;;;17.26;45.32
55468;BME280;41332;42.702;23.200;2022-10-15T10:43:52;94289.91;;;17.20;44.24
55468;BME280;41332;42.702;23.200;2022-10-15T10:46:19;94287.31;;;17.23;45.67
55468;BME280;41332;42.702;23.200;2022-10-15T10:48:48;94291.72;;;17.39;44.46
55468;BME280;41332;42.702;23.200;2022-10-15T10:51:18;94281.09;;;17.39;44.10
55468;BME280;41332;42.702;23.200;2022-10-15T10:53:54;94286.53;;;17.50;46.14
55468;BME280;41332;42.702;23.200;2022-10-15T10:56:27;94273.53;;;17.71;44.09
55468;BME280;41332;42.702;23.200;2022-10-15T10:58:57;94274.13;;;17.57;43.77
55468;BME280;41332;42.702;23.200;2022-10-15T11:01:24;94272.19;;;17.54;43.44
55468;BME280;41332;42.702;23.200;2022-10-15T11:03:49;94268.13;;;17.34;44.16
55468;BME280;41332;42.702;23.200;2022-10-15T11:06:45;94268.31;;;17.21;44.21
55468;BME280;41332;42.702;23.200;2022-10-15T11:12:12;94266.91;;;17.27;44.51
55468;BME280;41332;42.702;23.200;2022-10-15T11:14:50;94268.28;;;16.91;44.06
55468;BME280;41332;42.702;23.200;2022-10-15T11:20:16;94277.22;;;16.36;45.10
55468;BME280;41332;42.702;23.200;2022-10-15T11:23:03;94278.75;;;16.18;45.66
55468;BME280;41332;42.702;23.200;2022-10-15T11:25:46;94286.50;;;16.07;45.57
55468;BME280;41332;42.702;23.200;2022-10-15T11:31:07;94281.50;;;15.82;46.58
55468;BME280;41332;42.702;23.200;2022-10-15T11:42:17;94275.53;;;15.69;47.55
55468;BME280;41332;42.702;23.200;2022-10-15T11:50:25;94270.19;;;15.85;47.18
55468;BME280;41332;42.702;23.200;2022-10-15T11:55:51;94266.06;;;16.07;47.13
55468;BME280;41332;42.702;23.200;2022-10-15T11:58:30;94266.69;;;16.20;46.32
55468;BME280;41332;42.702;23.200;2022-10-15T12:01:03;94273.94;;;16.23;46.48
55468;BME280;41332;42.702;23.200;2022-10-15T12:03:35;94272.25;;;16.35;45.89
55468;BME280;41332;42.702;23.200;2022-10-15T12:06:08;94265.44;;;16.34;45.95
55468;BME280;41332;42.702;23.200;2022-10-15T12:08:36;94264.59;;;16.53;43.91
55468;BME280;41332;42.702;23.200;2022-10-15T12:22:33;94262.06;;;16.83;43.70
55468;BME280;41332;42.702;23.200;2022-10-15T12:24:59;94258.34;;;16.88;44.18
55468;BME280;41332;42.702;23.200;2022-10-15T12:27:29;94260.88;;;16.80;43.86
55468;BME280;41332;42.702;23.200;2022-10-15T12:32:35;94251.16;;;16.65;44.11
55468;BME280;41332;42.702;23.200;2022-10-15T12:35:18;94248.28;;;16.51;44.89
55468;BME280;41332;42.702;23.200;2022-10-15T12:37:47;94243.22;;;16.42;45.70
55468;BME280;41332;42.702;23.200;2022-10-15T12:42:49;94248.75;;;16.56;44.96
55468;BME280;41332;42.702;23.200;2022-10-15T12:45:21;94262.00;;;16.56;44.61
55468;BME280;41332;42.702;23.200;2022-10-15T12:47:48;94265.53;;;16.41;45.63
55468;BME280;41332;42.702;23.200;2022-10-15T12:50:27;94251.22;;;16.22;45.18
55468;BME280;41332;42.702;23.200;2022-10-15T12:53:01;94262.38;;;16.12;46.35
55468;BME280;41332;42.702;23.200;2022-10-15T12:55:34;94258.56;;;15.90;46.53
55468;BME280;41332;42.702;23.200;2022-10-15T13:00:37;94265.06;;;15.92;46.92
55468;BME280;41332;42.702;23.200;2022-10-15T13:03:10;94257.47;;;15.91;47.93
55468;BME280;41332;42.702;23.200;2022-10-15T13:05:38;94266.31;;;15.98;48.31
55468;BME280;41332;42.702;23.200;2022-10-15T13:08:11;94262.25;;;16.05;46.97
55468;BME280;41332;42.702;23.200;2022-10-15T13:10:47;94259.25;;;16.06;47.00
55468;BME280;41332;42.702;23.200;2022-10-15T13:13:28;94255.34;;;16.00;47.00
55468;BME280;41332;42.702;23.200;2022-10-15T13:15:57;94242.59;;;16.06;46.97
55468;BME280;41332;42.702;23.200;2022-10-15T13:18:24;94232.63;;;15.99;47.90
55468;BME280;41332;42.702;23.200;2022-10-15T13:20:51;94244.53;;;16.09;47.73
55468;BME280;41332;42.702;23.200;2022-10-15T13:23:24;94241.13;;;16.08;47.37
55468;BME280;41332;42.702;23.200;2022-10-15T13:26:01;94255.44;;;16.04;47.77
55468;BME280;41332;42.702;23.200;2022-10-15T13:28:36;94247.63;;;15.91;47.47
55468;BME280;41332;42.702;23.200;2022-10-15T13:31:05;94249.09;;;15.89;48.38
55468;BME280;41332;42.702;23.200;2022-10-15T13:33:37;94253.47;;;15.81;48.15
55468;BME280;41332;42.702;23.200;2022-10-15T13:36:05;94262.09;;;15.78;48.36
55468;BME280;41332;42.702;23.200;2022-10-15T13:38:38;94253.81;;;15.79;49.41
55468;BME280;41332;42.702;23.200;2022-10-15T13:41:04;94258.09;;;15.84;49.07
55468;BME280;41332;42.702;23.200;2022-10-15T13:43:29;94254.34;;;15.69;48.51
55468;BME280;41332;42.702;23.200;2022-10-15T13:45:55;94251.06;;;15.56;50.04
55468;BME280;41332;42.702;23.200;2022-10-15T13:48:27;94240.75;;;15.51;49.50
55468;BME280;41332;42.702;23.200;2022-10-15T13:50:55;94249.88;;;15.54;50.13
55468;BME280;41332;42.702;23.200;2022-10-15T13:53:30;94249.69;;;15.62;50.12
55468;BME280;41332;42.702;23.200;2022-10-15T13:55:58;94250.88;;;15.65;49.57
55468;BME280;41332;42.702;23.200;2022-10-15T13:58:34;94259.38;;;15.55;49.63
55468;BME280;41332;42.702;23.200;2022-10-15T14:01:12;94260.66;;;15.45;49.79
55468;BME280;41332;42.702;23.200;2022-10-15T14:03:48;94249.31;;;15.44;49.94
55468;BME280;41332;42.702;23.200;2022-10-15T14:06:25;94250.88;;;15.45;50.03
55468;BME280;41332;42.702;23.200;2022-10-15T14:08:56;94242.75;;;15.38;49.83
55468;BME280;41332;42.702;23.200;2022-10-15T14:11:22;94248.50;;;15.40;49.84
55468;BME280;41332;42.702;23.200;2022-10-15T14:13:50;94243.97;;;15.41;49.50
55468;BME280;41332;42.702;23.200;2022-10-15T14:16:22;94247.50;;;15.29;49.45
55468;BME280;41332;42.702;23.200;2022-10-15T14:18:51;94248.28;;;15.13;50.22
55468;BME280;41332;42.702;23.200;2022-10-15T14:21:21;94245.06;;;15.04;50.45
55468;BME280;41332;42.702;23.200;2022-10-15T14:24:18;94235.50;;;14.99;50.27
55468;BME280;41332;42.702;23.200;2022-10-15T14:26:44;94235.38;;;14.92;50.73
55468;BME280;41332;42.702;23.200;2022-10-15T14:31:48;94239.97;;;14.95;50.47
55468;BME280;41332;42.702;23.200;2022-10-15T14:34:34;94242.97;;;14.94;51.01
55468;BME280;41332;42.702;23.200;2022-10-15T14:47:36;94259.34;;;14.67;51.02
55468;BME280;41332;42.702;23.200;2022-10-15T14:50:02;94260.78;;;14.65;51.49
55468;BME280;41332;42.702;23.200;2022-10-15T14:52:29;94260.25;;;14.59;51.96